createdAt,value
2023-03-11T00:00:39.738Z,1.77
2023-03-11T00:03:08.055Z,1.70
2023-03-11T00:05:40.807Z,2.10
2023-03-11T00:08:12.590Z,2.15
2023-03-11T00:10:41.471Z,1.75
2023-03-11T00:13:09.856Z,2.20
2023-03-11T00:15:36.976Z,2.30
2023-03-11T00:18:04.204Z,2.50
2023-03-11T00:20:34.326Z,2.90
2023-03-11T00:23:01.326Z,3.22
2023-03-11T00:25:30.625Z,2.65
2023-03-11T00:27:57.373Z,2.55
2023-03-11T00:30:24.731Z,2.60
2023-03-11T00:32:54.922Z,2.65
2023-03-11T00:35:24.445Z,2.88
2023-03-11T00:37:54.118Z,2.47
2023-03-11T00:40:21.635Z,2.88
2023-03-11T00:42:48.476Z,3.65
2023-03-11T00:45:15.767Z,2.67
2023-03-11T00:47:42.259Z,3.13
2023-03-11T00:50:12.344Z,2.58
2023-03-11T00:52:45.092Z,3.30
2023-03-11T00:55:19.252Z,2.45
2023-03-11T00:57:51.488Z,3.50
2023-03-11T01:00:20.748Z,2.55
2023-03-11T01:02:47.250Z,2.28
2023-03-11T01:05:15.665Z,2.55
2023-03-11T01:07:44.680Z,2.60
2023-03-11T01:10:12.740Z,2.00
2023-03-11T01:12:39.451Z,1.90
2023-03-11T01:15:07.779Z,2.53
2023-03-11T01:17:34.347Z,2.67
2023-03-11T01:20:00.826Z,2.17
2023-03-11T01:22:27.336Z,2.55
2023-03-11T01:24:54.668Z,1.90
2023-03-11T01:27:21.113Z,1.77
2023-03-11T01:29:47.581Z,2.38
2023-03-11T01:32:14.219Z,1.83
2023-03-11T01:34:40.720Z,1.98
2023-03-11T01:37:07.179Z,1.25
2023-03-11T01:39:34.233Z,1.73
2023-03-11T01:42:00.834Z,2.15
2023-03-11T01:44:27.466Z,1.55
2023-03-11T01:46:54.019Z,1.95
2023-03-11T01:49:29.690Z,2.47
2023-03-11T01:52:03.837Z,2.00
2023-03-11T01:54:32.424Z,2.25
2023-03-11T01:56:59.829Z,2.50
2023-03-11T01:59:29.639Z,3.17
2023-03-11T02:02:01.412Z,2.70
2023-03-11T02:04:29.708Z,2.75
2023-03-11T02:06:56.567Z,3.95
2023-03-11T02:09:24.136Z,2.58
2023-03-11T02:11:53.700Z,2.85
2023-03-11T02:14:26.086Z,2.95
2023-03-11T02:16:53.645Z,2.55
2023-03-11T02:19:46.479Z,2.45
2023-03-11T02:22:13.867Z,2.88
2023-03-11T02:24:51.567Z,2.33
2023-03-11T02:27:18.728Z,2.67
2023-03-11T02:29:49.702Z,2.75
2023-03-11T02:32:17.451Z,2.95
2023-03-11T02:34:44.575Z,2.75
2023-03-11T02:37:15.047Z,2.95
2023-03-11T02:39:48.215Z,3.13
2023-03-11T02:42:20.652Z,3.70
2023-03-11T02:45:03.991Z,2.17
2023-03-11T02:47:31.200Z,2.55
2023-03-11T02:49:57.972Z,2.38
2023-03-11T02:52:26.115Z,2.30
2023-03-11T02:54:54.789Z,3.45
2023-03-11T02:57:24.709Z,2.83
2023-03-11T02:59:51.304Z,2.83
2023-03-11T03:02:20.933Z,2.35
2023-03-11T03:04:50.830Z,2.05
2023-03-11T03:07:20.619Z,2.72
2023-03-11T03:09:47.076Z,2.08
2023-03-11T03:12:16.397Z,2.78
2023-03-11T03:14:49.815Z,1.50
2023-03-11T03:17:18.151Z,1.48
2023-03-11T03:19:47.871Z,1.52
2023-03-11T03:22:16.085Z,2.42
2023-03-11T03:24:45.656Z,2.90
2023-03-11T03:27:12.395Z,2.67
2023-03-11T03:29:40.652Z,2.20
2023-03-11T03:32:07.632Z,2.22
2023-03-11T03:34:34.674Z,1.98
2023-03-11T03:37:01.733Z,2.28
2023-03-11T03:39:30.574Z,1.85
2023-03-11T03:42:00.774Z,1.88
2023-03-11T03:44:30.672Z,1.88
2023-03-11T03:47:01.374Z,1.83
2023-03-11T03:49:28.889Z,2.00
2023-03-11T03:51:56.703Z,2.08
2023-03-11T03:54:30.399Z,2.17
2023-03-11T03:56:58.785Z,1.52
2023-03-11T03:59:25.385Z,2.33
2023-03-11T04:01:56.737Z,1.90
2023-03-11T04:04:25.123Z,1.48
2023-03-11T04:06:51.918Z,2.10
2023-03-11T04:09:19.406Z,1.67
2023-03-11T04:11:53.224Z,1.92
2023-03-11T04:14:22.687Z,2.03
2023-03-11T04:16:54.532Z,1.95
2023-03-11T04:19:21.188Z,1.55
2023-03-11T04:21:47.627Z,2.03
2023-03-11T04:24:14.794Z,1.52
2023-03-11T04:26:41.309Z,2.05
2023-03-11T04:29:12.224Z,2.58
2023-03-11T04:31:45.480Z,1.52
2023-03-11T04:34:14.725Z,2.00
2023-03-11T04:36:45.709Z,1.48
2023-03-11T04:39:15.259Z,2.10
2023-03-11T04:41:46.703Z,1.38
2023-03-11T04:44:17.515Z,2.28
2023-03-11T04:46:44.991Z,1.95
2023-03-11T04:49:12.864Z,2.55
2023-03-11T04:51:44.889Z,2.40
2023-03-11T04:54:16.827Z,1.40
2023-03-11T04:56:43.707Z,1.73
2023-03-11T04:59:10.225Z,2.17
2023-03-11T05:01:38.841Z,2.55
2023-03-11T05:04:08.143Z,1.98
2023-03-11T05:06:36.084Z,1.83
2023-03-11T05:09:04.746Z,1.73
2023-03-11T05:11:34.340Z,2.38
2023-03-11T05:14:00.959Z,1.42
2023-03-11T05:16:27.481Z,1.48
2023-03-11T05:18:54.121Z,1.98
2023-03-11T05:21:20.587Z,1.80
2023-03-11T05:23:47.056Z,1.02
2023-03-11T05:26:14.603Z,1.52
2023-03-11T05:28:43.415Z,1.52
2023-03-11T05:31:11.254Z,1.75
2023-03-11T05:33:39.004Z,1.40
2023-03-11T05:36:09.353Z,1.42
2023-03-11T05:38:38.439Z,1.60
2023-03-11T05:41:06.461Z,2.20
2023-03-11T05:43:33.821Z,2.00
2023-03-11T05:46:00.330Z,1.33
2023-03-11T05:48:30.022Z,1.58
2023-03-11T05:50:57.692Z,1.83
2023-03-11T05:53:25.234Z,1.92
2023-03-11T05:55:59.530Z,1.85
2023-03-11T05:58:31.423Z,1.45
2023-03-11T06:01:03.176Z,1.27
2023-03-11T06:03:33.496Z,1.77
2023-03-11T06:06:00.015Z,1.70
2023-03-11T06:08:26.753Z,1.45
2023-03-11T06:10:53.243Z,1.17
2023-03-11T06:13:22.577Z,2.00
2023-03-11T06:15:55.219Z,1.60
2023-03-11T06:18:26.721Z,1.40
2023-03-11T06:20:54.237Z,1.75
2023-03-11T06:23:20.797Z,1.88
2023-03-11T06:26:05.408Z,1.10
2023-03-11T06:28:39.312Z,1.77
2023-03-11T06:31:10.611Z,1.63
2023-03-11T06:33:42.717Z,1.45
2023-03-11T06:36:14.419Z,1.60
2023-03-11T06:38:48.401Z,1.45
2023-03-11T06:41:18.171Z,1.50
2023-03-11T06:43:44.819Z,1.35
2023-03-11T06:46:15.887Z,1.25
2023-03-11T06:48:45.855Z,1.63
2023-03-11T06:51:13.950Z,1.67
2023-03-11T06:53:40.535Z,1.75
2023-03-11T06:56:11.108Z,1.80
2023-03-11T06:58:52.797Z,1.70
2023-03-11T07:01:22.056Z,1.67
2023-03-11T07:03:50.107Z,1.40
2023-03-11T07:06:19.761Z,2.03
2023-03-11T07:08:48.642Z,2.47
2023-03-11T07:11:20.713Z,2.03
2023-03-11T07:13:49.807Z,1.40
2023-03-11T07:16:21.769Z,2.03
2023-03-11T07:18:55.092Z,1.52
2023-03-11T07:21:22.989Z,2.00
2023-03-11T07:23:58.775Z,2.10
2023-03-11T07:26:27.232Z,1.83
2023-03-11T07:28:54.798Z,1.42
2023-03-11T07:31:28.260Z,1.75
2023-03-11T07:33:57.560Z,1.45
2023-03-11T07:36:25.808Z,1.83
2023-03-11T07:39:01.122Z,1.70
2023-03-11T07:41:32.162Z,1.42
2023-03-11T07:44:01.576Z,1.80
2023-03-11T07:46:30.143Z,1.38
2023-03-11T07:48:57.009Z,1.77
2023-03-11T07:51:26.712Z,1.60
2023-03-11T07:53:54.647Z,1.92
2023-03-11T07:56:23.637Z,2.10
2023-03-11T07:58:50.941Z,1.55
2023-03-11T08:01:20.809Z,1.95
2023-03-11T08:03:50.278Z,1.50
2023-03-11T08:06:19.664Z,1.77
2023-03-11T08:08:47.045Z,1.90
2023-03-11T08:11:14.162Z,1.63
2023-03-11T08:13:41.628Z,1.77
2023-03-11T08:16:09.293Z,2.35
2023-03-11T08:18:38.608Z,1.50
2023-03-11T08:21:09.828Z,1.65
2023-03-11T08:23:36.746Z,1.85
2023-03-11T08:26:05.086Z,2.00
2023-03-11T08:28:32.766Z,1.27
2023-03-11T08:30:59.619Z,1.77
2023-03-11T08:33:27.154Z,1.67
2023-03-11T08:35:54.835Z,1.95
2023-03-11T08:38:24.723Z,2.42
2023-03-11T08:40:54.326Z,2.40
2023-03-11T08:43:21.159Z,2.58
2023-03-11T08:45:47.686Z,1.92
2023-03-11T08:48:14.192Z,2.22
2023-03-11T08:50:53.366Z,2.53
2023-03-11T08:53:21.918Z,2.97
2023-03-11T08:55:49.679Z,2.40
2023-03-11T08:58:17.631Z,2.22
2023-03-11T09:00:47.667Z,2.25
2023-03-11T09:03:14.194Z,1.92
2023-03-11T09:05:41.022Z,1.55
2023-03-11T09:08:07.811Z,1.95
2023-03-11T09:10:34.293Z,1.75
2023-03-11T09:13:00.736Z,1.40
2023-03-11T09:15:28.833Z,1.88
2023-03-11T09:17:55.787Z,1.85
2023-03-11T09:20:22.324Z,1.35
2023-03-11T09:22:49.141Z,1.92
2023-03-11T09:25:15.682Z,1.75
2023-03-11T09:27:42.185Z,1.85
2023-03-11T09:30:11.661Z,1.58
2023-03-11T09:32:38.168Z,1.42
2023-03-11T09:35:05.294Z,2.33
2023-03-11T09:37:31.920Z,2.50
2023-03-11T09:39:58.364Z,2.13
2023-03-11T09:42:47.913Z,2.90
2023-03-11T09:45:17.625Z,2.20
2023-03-11T09:48:07.104Z,2.10
2023-03-11T09:50:36.582Z,2.67
2023-03-11T09:53:20.257Z,2.17
2023-03-11T09:55:52.726Z,2.22
2023-03-11T09:58:42.421Z,2.20
2023-03-11T10:01:22.514Z,2.20
2023-03-11T10:03:50.360Z,3.35
2023-03-11T10:06:25.174Z,2.33
2023-03-11T10:09:34.966Z,2.65
2023-03-11T10:12:36.632Z,2.60
2023-03-11T10:15:26.556Z,2.90
2023-03-11T10:18:05.708Z,2.70
2023-03-11T10:20:39.586Z,2.88
2023-03-11T10:23:57.656Z,2.50
2023-03-11T10:26:35.210Z,2.28
2023-03-11T10:29:17.071Z,2.80
2023-03-11T10:31:52.020Z,3.53
2023-03-11T10:34:27.555Z,2.55
2023-03-11T10:37:00.468Z,3.65
2023-03-11T10:39:27.556Z,3.00
2023-03-11T10:41:59.294Z,3.10
2023-03-11T10:44:29.949Z,3.35
2023-03-11T10:47:01.658Z,3.28
2023-03-11T10:49:32.891Z,2.90
2023-03-11T10:51:59.479Z,3.50
2023-03-11T10:54:41.845Z,3.63
2023-03-11T10:57:29.612Z,3.00
2023-03-11T11:00:00.694Z,2.75
2023-03-11T11:02:39.348Z,4.05
2023-03-11T11:05:18.150Z,3.25
2023-03-11T11:07:46.553Z,3.80
2023-03-11T11:10:23.224Z,2.13
2023-03-11T11:12:59.394Z,3.65
2023-03-11T11:15:40.673Z,3.78
2023-03-11T11:18:30.197Z,3.53
2023-03-11T11:21:29.262Z,3.75
2023-03-11T11:24:10.343Z,3.33
2023-03-11T11:26:36.833Z,3.58
2023-03-11T11:29:16.265Z,3.58
2023-03-11T11:31:45.089Z,3.80
2023-03-11T11:34:29.083Z,4.35
2023-03-11T11:37:01.995Z,3.83
2023-03-11T11:39:32.924Z,3.25
2023-03-11T11:42:01.849Z,3.88
2023-03-11T11:44:36.953Z,5.00
2023-03-11T11:47:25.101Z,4.13
2023-03-11T11:49:57.427Z,3.85
2023-03-11T11:52:36.605Z,3.53
2023-03-11T11:55:10.342Z,4.72
2023-03-11T11:57:37.053Z,3.35
2023-03-11T12:00:22.605Z,3.65
2023-03-11T12:03:27.741Z,3.33
2023-03-11T12:06:02.587Z,3.28
2023-03-11T12:08:48.519Z,2.70
2023-03-11T12:11:34.198Z,3.47
2023-03-11T12:14:12.674Z,2.72
2023-03-11T12:16:43.110Z,3.33
2023-03-11T12:19:10.247Z,3.10
2023-03-11T12:22:30.799Z,3.55
2023-03-11T12:25:22.431Z,3.85
2023-03-11T12:28:17.260Z,4.28
2023-03-11T12:31:09.027Z,4.13
2023-03-11T12:33:44.190Z,4.90
2023-03-11T12:36:32.417Z,4.53
2023-03-11T12:39:00.744Z,4.30
2023-03-11T12:41:40.169Z,3.65
2023-03-11T12:44:29.748Z,4.50
2023-03-11T12:46:59.290Z,4.15
2023-03-11T12:49:33.638Z,3.85
2023-03-11T12:52:13.806Z,3.80
2023-03-11T12:54:48.076Z,4.07
2023-03-11T12:57:19.096Z,3.70
2023-03-11T13:00:17.961Z,2.95
2023-03-11T13:03:09.865Z,3.30
2023-03-11T13:05:52.710Z,3.00
2023-03-11T13:08:26.078Z,2.90
2023-03-11T13:10:56.636Z,2.40
2023-03-11T13:13:42.353Z,2.30
2023-03-11T13:16:17.734Z,2.80
2023-03-11T13:18:48.596Z,2.70
2023-03-11T13:21:27.115Z,2.88
2023-03-11T13:24:19.358Z,2.53
2023-03-11T13:27:04.497Z,2.30
2023-03-11T13:29:54.923Z,1.90
2023-03-11T13:32:46.498Z,1.83
2023-03-11T13:35:44.319Z,2.00
2023-03-11T13:38:45.080Z,1.88
2023-03-11T13:41:17.002Z,1.80
2023-03-11T13:43:45.271Z,1.70
2023-03-11T13:46:17.769Z,1.80
2023-03-11T13:48:46.415Z,2.03
2023-03-11T13:51:18.750Z,2.00
2023-03-11T13:53:48.367Z,1.70
2023-03-11T13:56:22.630Z,1.60
2023-03-11T13:58:49.070Z,1.60
2023-03-11T14:01:16.953Z,1.92
2023-03-11T14:03:45.653Z,1.85
2023-03-11T14:06:18.009Z,1.50
2023-03-11T14:08:56.496Z,1.52
2023-03-11T14:11:30.053Z,1.50
2023-03-11T14:13:56.531Z,1.50
2023-03-11T14:16:37.757Z,1.30
2023-03-11T14:19:15.673Z,1.30
2023-03-11T14:21:47.641Z,1.35
2023-03-11T14:24:23.240Z,1.33
2023-03-11T14:26:56.554Z,1.23
2023-03-11T14:29:37.348Z,1.38
2023-03-11T14:32:28.030Z,1.15
2023-03-11T14:34:55.919Z,1.25
2023-03-11T14:37:34.098Z,1.27
2023-03-11T14:40:00.876Z,1.40
2023-03-11T14:42:32.508Z,1.38
2023-03-11T14:45:16.238Z,1.40
2023-03-11T14:47:59.224Z,1.20
2023-03-11T14:50:28.258Z,1.70
2023-03-11T14:53:02.403Z,1.35
2023-03-11T14:55:51.038Z,1.15
2023-03-11T14:58:43.644Z,1.50
2023-03-11T15:01:25.586Z,1.40
2023-03-11T15:03:59.712Z,1.42
2023-03-11T15:06:28.784Z,1.70
2023-03-11T15:09:05.857Z,1.38
2023-03-11T15:11:44.588Z,1.30
2023-03-11T15:14:19.368Z,1.40
2023-03-11T15:16:49.400Z,1.42
2023-03-11T15:19:28.862Z,1.27
2023-03-11T15:22:17.228Z,1.40
2023-03-11T15:24:52.939Z,1.80
2023-03-11T15:27:29.116Z,1.60
2023-03-11T15:29:56.283Z,1.80
2023-03-11T15:32:28.836Z,2.08
2023-03-11T15:35:13.212Z,4.78
2023-03-11T15:37:42.370Z,1.90
2023-03-11T15:40:44.109Z,2.55
2023-03-11T15:43:29.202Z,2.00
2023-03-11T15:45:56.995Z,1.63
2023-03-11T15:48:24.323Z,2.10
2023-03-11T15:50:55.032Z,2.33
2023-03-11T15:53:23.283Z,1.80
2023-03-11T15:55:50.078Z,1.50
2023-03-11T15:58:18.843Z,1.77
2023-03-11T16:00:52.854Z,2.28
2023-03-11T16:05:46.672Z,1.45
2023-03-11T16:08:13.195Z,1.88
2023-03-11T16:10:42.832Z,1.70
2023-03-11T16:13:16.582Z,1.10
2023-03-11T16:15:45.064Z,1.00
2023-03-11T16:18:12.373Z,1.33
2023-03-11T16:20:40.873Z,1.35
2023-03-11T16:23:10.872Z,1.35
2023-03-11T16:25:42.066Z,1.52
2023-03-11T16:28:11.991Z,1.70
2023-03-11T16:30:38.428Z,1.42
2023-03-11T16:33:05.391Z,1.88
2023-03-11T16:35:32.054Z,1.63
2023-03-11T16:37:58.572Z,1.00
2023-03-11T16:40:27.237Z,1.05
2023-03-11T16:43:20.982Z,1.25
2023-03-11T16:45:47.455Z,1.45
2023-03-11T16:48:14.115Z,2.47
2023-03-11T16:50:40.562Z,1.70
2023-03-11T16:53:07.019Z,1.35
2023-03-11T16:55:33.530Z,1.25
2023-03-11T16:58:00.915Z,1.30
2023-03-11T17:00:35.894Z,1.27
2023-03-11T17:03:02.576Z,1.70
2023-03-11T17:05:29.263Z,0.85
2023-03-11T17:08:00.622Z,0.70
2023-03-11T17:10:28.320Z,1.00
2023-03-11T17:12:55.320Z,1.08
2023-03-11T17:15:22.293Z,0.82
2023-03-11T17:17:53.818Z,1.13
2023-03-11T17:20:21.774Z,1.33
2023-03-11T17:22:48.386Z,1.17
2023-03-11T17:25:17.705Z,1.02
2023-03-11T17:27:44.508Z,1.30
2023-03-11T17:30:12.370Z,1.38
2023-03-11T17:32:38.993Z,0.95
2023-03-11T17:35:05.941Z,1.05
2023-03-11T17:37:32.397Z,1.00
2023-03-11T17:39:58.868Z,1.10
2023-03-11T17:42:25.400Z,0.93
2023-03-11T17:44:55.569Z,0.88
2023-03-11T17:47:27.590Z,1.00
2023-03-11T17:49:56.932Z,1.08
2023-03-11T17:52:25.464Z,1.33
2023-03-11T17:54:56.612Z,1.20
2023-03-11T17:57:23.762Z,1.10
2023-03-11T17:59:51.053Z,1.40
2023-03-11T18:02:17.628Z,1.48
2023-03-11T18:04:46.620Z,1.20
2023-03-11T18:07:14.741Z,1.85
2023-03-11T18:09:41.179Z,1.63
2023-03-11T18:12:07.824Z,1.23
2023-03-11T18:14:34.294Z,1.73
2023-03-11T18:17:00.784Z,1.83
2023-03-11T18:19:27.272Z,1.13
2023-03-11T18:21:53.736Z,1.50
2023-03-11T18:24:20.175Z,1.50
2023-03-11T18:26:46.622Z,2.08
2023-03-11T18:29:13.090Z,1.98
2023-03-11T18:31:39.713Z,1.23
2023-03-11T18:34:12.576Z,1.55
2023-03-11T18:36:41.148Z,2.10
2023-03-11T18:39:11.154Z,1.80
2023-03-11T18:41:38.063Z,1.90
2023-03-11T18:44:04.937Z,2.83
2023-03-11T18:46:32.582Z,2.50
2023-03-11T18:49:02.260Z,2.08
2023-03-11T18:51:31.822Z,2.67
2023-03-11T18:54:02.550Z,3.80
2023-03-11T18:56:33.366Z,3.55
2023-03-11T18:59:03.262Z,2.80
2023-03-11T19:01:30.262Z,3.65
2023-03-11T19:04:03.863Z,2.03
2023-03-11T19:06:31.852Z,1.77
2023-03-11T19:08:58.535Z,1.77
2023-03-11T19:11:25.354Z,1.60
2023-03-11T19:13:52.562Z,1.30
2023-03-11T19:16:22.172Z,2.10
2023-03-11T19:18:50.287Z,2.55
2023-03-11T19:21:17.312Z,1.65
2023-03-11T19:23:44.796Z,1.10
2023-03-11T19:26:11.274Z,1.70
2023-03-11T19:28:37.699Z,1.40
2023-03-11T19:31:05.248Z,4.65
2023-03-11T19:33:32.601Z,4.18
2023-03-11T19:36:01.565Z,3.42
2023-03-11T19:38:29.009Z,3.33
2023-03-11T19:41:30.739Z,2.03
2023-03-11T19:43:57.178Z,1.48
2023-03-11T19:46:23.746Z,1.90
2023-03-11T19:48:50.768Z,1.95
2023-03-11T19:51:17.523Z,1.75
2023-03-11T19:53:44.286Z,1.77
2023-03-11T19:56:10.871Z,1.30
2023-03-11T19:58:41.744Z,1.58
2023-03-11T20:01:15.553Z,1.40
2023-03-11T20:03:42.903Z,1.77
2023-03-11T20:06:09.434Z,1.92
2023-03-11T20:08:37.340Z,2.55
2023-03-11T20:11:05.238Z,2.00
2023-03-11T20:13:31.903Z,2.35
2023-03-11T20:16:07.424Z,2.28
2023-03-11T20:18:36.933Z,1.75
2023-03-11T20:21:11.104Z,1.92
2023-03-11T20:23:43.751Z,1.60
2023-03-11T20:26:15.999Z,1.50
2023-03-11T20:28:42.790Z,1.40
2023-03-11T20:31:12.792Z,2.92
2023-03-11T20:33:42.618Z,1.30
2023-03-11T20:36:13.658Z,1.85
2023-03-11T20:38:40.676Z,1.92
2023-03-11T20:41:11.811Z,2.38
2023-03-11T20:43:39.363Z,1.90
2023-03-11T20:46:07.112Z,2.15
2023-03-11T20:48:34.083Z,1.98
2023-03-11T20:51:06.486Z,2.20
2023-03-11T20:53:33.390Z,2.00
2023-03-11T20:56:06.513Z,2.53
2023-03-11T20:58:33.547Z,1.70
2023-03-11T21:01:00.622Z,1.52
2023-03-11T21:03:28.157Z,1.98
2023-03-11T21:05:54.800Z,1.67
2023-03-11T21:08:21.770Z,1.98
2023-03-11T21:10:48.212Z,1.17
2023-03-11T21:13:15.219Z,1.42
2023-03-11T21:15:42.894Z,1.23
2023-03-11T21:18:10.954Z,1.20
2023-03-11T21:20:38.729Z,1.23
2023-03-11T21:23:06.736Z,1.27
2023-03-11T21:25:35.835Z,1.50
2023-03-11T21:28:03.269Z,1.30
2023-03-11T21:30:32.065Z,1.40
2023-03-11T21:32:58.883Z,1.60
2023-03-11T21:35:25.414Z,1.40
2023-03-11T21:37:54.146Z,1.10
2023-03-11T21:40:20.785Z,1.25
2023-03-11T21:42:47.238Z,1.77
2023-03-11T21:45:13.749Z,1.33
2023-03-11T21:47:40.550Z,1.70
2023-03-11T21:50:07.821Z,1.65
2023-03-11T21:52:34.359Z,1.30
2023-03-11T21:55:00.942Z,1.60
2023-03-11T21:57:27.608Z,1.17
2023-03-11T21:59:54.345Z,1.45
2023-03-11T22:02:21.093Z,1.10
2023-03-11T22:04:48.536Z,1.95
2023-03-11T22:07:15.280Z,1.10
2023-03-11T22:09:41.895Z,1.40
2023-03-11T22:12:08.623Z,1.30
2023-03-11T22:14:36.135Z,2.42
2023-03-11T22:17:02.836Z,2.03
2023-03-11T22:19:29.397Z,2.00
2023-03-11T22:21:55.954Z,1.83
2023-03-11T22:24:22.603Z,1.25
2023-03-11T22:26:49.120Z,1.33
2023-03-11T22:29:15.655Z,1.70
2023-03-11T22:31:42.124Z,1.77
2023-03-11T22:34:08.707Z,1.33
2023-03-11T22:36:35.271Z,1.88
2023-03-11T22:39:04.284Z,1.30
2023-03-11T22:41:31.392Z,1.70
2023-03-11T22:43:57.969Z,1.60
2023-03-11T22:46:25.516Z,1.33
2023-03-11T22:48:52.099Z,1.50
2023-03-11T22:51:18.751Z,1.40
2023-03-11T22:53:45.382Z,1.90
2023-03-11T22:56:14.116Z,1.40
2023-03-11T22:58:41.320Z,1.20
2023-03-11T23:01:08.568Z,1.53
2023-03-11T23:03:35.789Z,1.43
2023-03-11T23:06:04.819Z,1.93
2023-03-11T23:08:31.743Z,1.55
2023-03-11T23:11:05.634Z,1.33
2023-03-11T23:16:04.908Z,1.53
2023-03-11T23:18:31.468Z,1.07
2023-03-11T23:20:58.024Z,1.60
2023-03-11T23:23:24.540Z,1.27
2023-03-11T23:25:51.074Z,2.10
2023-03-11T23:28:17.603Z,1.77
2023-03-11T23:30:44.216Z,1.50
2023-03-11T23:33:10.697Z,1.30
2023-03-11T23:35:41.883Z,1.67
2023-03-11T23:38:09.017Z,1.40
2023-03-11T23:40:35.596Z,1.73
2023-03-11T23:43:02.252Z,1.60
2023-03-11T23:45:28.798Z,1.50
2023-03-11T23:47:55.432Z,1.80
2023-03-11T23:50:21.882Z,1.60
2023-03-11T23:52:48.341Z,1.37
2023-03-11T23:55:14.868Z,1.80
2023-03-11T23:57:41.412Z,2.00
